createdAt,value
2019-03-01T00:01:24.057Z,15.93
2019-03-01T00:03:56.078Z,15.93
2019-03-01T00:06:31.081Z,14.07
2019-03-01T00:09:17.705Z,14.03
2019-03-01T00:12:04.351Z,14.63
2019-03-01T00:14:54.355Z,10.13
2019-03-01T00:17:38.273Z,10.70
2019-03-01T00:20:27.590Z,8.77
2019-03-01T00:23:08.790Z,8.53
2019-03-01T00:25:59.132Z,11.80
2019-03-01T00:28:36.099Z,8.70
2019-03-01T00:31:36.675Z,16.20
2019-03-01T00:34:11.827Z,10.20
2019-03-01T00:36:46.425Z,16.23
2019-03-01T00:39:20.915Z,15.90
2019-03-01T00:42:27.592Z,10.10
2019-03-01T00:44:56.773Z,10.03
2019-03-01T00:47:25.787Z,10.63
2019-03-01T00:49:55.228Z,6.87
2019-03-01T00:52:24.570Z,9.10
2019-03-01T00:54:53.873Z,10.97
2019-03-01T00:57:22.863Z,9.70
2019-03-01T00:59:52.602Z,7.17
2019-03-01T01:02:21.761Z,7.57
2019-03-01T01:04:51.460Z,8.60
2019-03-01T01:07:20.293Z,8.47
2019-03-01T01:09:50.471Z,11.60
2019-03-01T01:12:19.511Z,7.20
2019-03-01T01:14:48.403Z,5.33
2019-03-01T01:17:17.978Z,5.73
2019-03-01T01:19:46.945Z,7.83
2019-03-01T01:22:17.145Z,6.97
2019-03-01T01:24:46.299Z,7.37
2019-03-01T01:27:15.679Z,10.53
2019-03-01T01:29:45.038Z,8.63
2019-03-01T01:32:14.468Z,6.50
2019-03-01T01:34:43.561Z,4.80
2019-03-01T01:37:12.969Z,6.33
2019-03-01T01:39:41.821Z,5.03
2019-03-01T01:42:10.937Z,7.33
2019-03-01T01:44:40.468Z,10.13
2019-03-01T01:47:09.719Z,5.97
2019-03-01T01:49:38.643Z,7.00
2019-03-01T01:52:07.807Z,6.47
2019-03-01T01:54:36.796Z,6.57
2019-03-01T01:57:05.697Z,7.90
2019-03-01T01:59:34.718Z,9.10
2019-03-01T02:02:03.518Z,5.53
2019-03-01T02:04:32.699Z,15.00
2019-03-01T02:07:01.897Z,7.10
2019-03-01T02:09:31.154Z,7.37
2019-03-01T02:12:00.177Z,6.93
2019-03-01T02:14:29.234Z,4.40
2019-03-01T02:16:58.932Z,6.57
2019-03-01T02:19:29.136Z,7.70
2019-03-01T02:21:58.503Z,6.07
2019-03-01T02:24:27.925Z,6.67
2019-03-01T02:27:19.395Z,7.97
2019-03-01T02:29:48.156Z,5.70
2019-03-01T02:32:20.770Z,8.97
2019-03-01T02:34:50.130Z,6.87
2019-03-01T02:37:20.328Z,8.80
2019-03-01T02:39:49.388Z,5.53
2019-03-01T02:42:19.382Z,4.47
2019-03-01T02:44:48.410Z,7.50
2019-03-01T02:47:17.431Z,5.23
2019-03-01T02:49:47.018Z,9.00
2019-03-01T02:52:16.320Z,11.83
2019-03-01T02:54:45.200Z,8.37
2019-03-01T02:57:14.107Z,8.90
2019-03-01T02:59:43.605Z,9.80
2019-03-01T03:02:13.059Z,13.07
2019-03-01T03:04:42.201Z,12.60
2019-03-01T03:07:12.744Z,8.77
2019-03-01T03:09:41.812Z,6.63
2019-03-01T03:12:11.318Z,7.90
2019-03-01T03:14:40.487Z,10.20
2019-03-01T03:17:09.657Z,12.03
2019-03-01T03:19:38.600Z,11.10
2019-03-01T03:22:07.680Z,8.03
2019-03-01T03:24:37.645Z,9.40
2019-03-01T03:27:07.620Z,13.33
2019-03-01T03:29:36.808Z,11.90
2019-03-01T03:32:05.725Z,10.90
2019-03-01T03:34:34.898Z,11.00
2019-03-01T03:37:04.333Z,10.40
2019-03-01T03:39:33.473Z,10.23
2019-03-01T03:42:03.018Z,10.70
2019-03-01T03:44:32.562Z,8.33
2019-03-01T03:47:01.597Z,11.60
2019-03-01T03:49:31.366Z,16.70
2019-03-01T03:52:00.467Z,12.47
2019-03-01T03:54:30.197Z,11.93
2019-03-01T03:56:59.205Z,14.17
2019-03-01T03:59:28.281Z,7.83
2019-03-01T04:01:58.668Z,13.23
2019-03-01T04:04:27.621Z,12.30
2019-03-01T04:06:56.992Z,9.07
2019-03-01T04:09:25.807Z,9.47
2019-03-01T04:11:54.827Z,7.13
2019-03-01T04:14:23.714Z,12.37
2019-03-01T04:16:52.719Z,11.33
2019-03-01T04:19:21.613Z,11.47
2019-03-01T04:21:50.531Z,11.23
2019-03-01T04:24:19.641Z,13.43
2019-03-01T04:26:48.847Z,8.33
2019-03-01T04:29:18.026Z,8.20
2019-03-01T04:31:47.424Z,10.47
2019-03-01T04:34:17.077Z,10.90
2019-03-01T04:36:46.077Z,6.80
2019-03-01T04:39:15.425Z,10.40
2019-03-01T04:41:44.538Z,7.90
2019-03-01T04:44:13.495Z,8.37
2019-03-01T04:46:42.878Z,8.90
2019-03-01T04:49:11.779Z,12.37
2019-03-01T04:51:40.906Z,15.23
2019-03-01T04:54:09.892Z,16.87
2019-03-01T04:56:38.989Z,9.73
2019-03-01T04:59:08.128Z,16.00
2019-03-01T05:01:37.112Z,11.20
2019-03-01T05:04:06.597Z,10.63
2019-03-01T05:06:35.848Z,11.47
2019-03-01T05:09:07.028Z,9.20
2019-03-01T05:11:36.316Z,10.40
2019-03-01T05:14:07.496Z,8.77
2019-03-01T05:16:36.666Z,9.20
2019-03-01T05:19:05.722Z,13.27
2019-03-01T05:21:35.448Z,7.53
2019-03-01T05:24:04.542Z,11.00
2019-03-01T05:26:33.625Z,15.63
2019-03-01T05:29:02.868Z,16.63
2019-03-01T05:31:34.146Z,9.57
2019-03-01T05:34:06.037Z,9.97
2019-03-01T05:36:40.762Z,9.60
2019-03-01T05:39:11.488Z,12.60
2019-03-01T05:41:42.543Z,10.60
2019-03-01T05:44:13.389Z,15.60
2019-03-01T05:46:47.426Z,12.03
2019-03-01T05:49:17.222Z,12.97
2019-03-01T05:51:48.594Z,13.17
2019-03-01T05:54:20.130Z,13.20
2019-03-01T05:56:51.921Z,13.07
2019-03-01T05:59:24.792Z,15.60
2019-03-01T06:02:03.897Z,15.77
2019-03-01T06:04:38.161Z,16.90
2019-03-01T06:07:16.223Z,12.57
2019-03-01T06:10:07.460Z,14.20
2019-03-01T06:12:49.094Z,11.57
2019-03-01T06:15:38.174Z,13.80
2019-03-01T06:18:21.072Z,13.10
2019-03-01T06:21:04.290Z,13.13
2019-03-01T06:23:54.626Z,13.30
2019-03-01T06:26:29.625Z,14.27
2019-03-01T06:29:02.387Z,15.60
2019-03-01T06:32:03.950Z,15.40
2019-03-01T06:35:01.150Z,11.30
2019-03-01T06:37:50.976Z,12.20
2019-03-01T06:40:51.201Z,10.13
2019-03-01T06:43:31.895Z,13.60
2019-03-01T06:46:09.697Z,12.50
2019-03-01T06:48:39.887Z,13.37
2019-03-01T06:51:12.948Z,10.20
2019-03-01T06:53:41.425Z,19.90
2019-03-01T06:56:10.334Z,14.40
2019-03-01T06:58:38.732Z,19.47
2019-03-01T07:01:08.842Z,14.53
2019-03-01T07:03:37.484Z,13.10
2019-03-01T07:06:05.892Z,9.80
2019-03-01T07:08:34.517Z,12.67
2019-03-01T07:11:03.167Z,9.77
2019-03-01T07:13:31.816Z,10.97
2019-03-01T07:16:00.596Z,12.03
2019-03-01T07:18:29.041Z,11.73
2019-03-01T07:20:57.694Z,8.80
2019-03-01T07:23:26.163Z,10.17
2019-03-01T07:25:55.134Z,7.07
2019-03-01T07:28:23.800Z,6.90
2019-03-01T07:30:52.714Z,9.10
2019-03-01T07:33:21.404Z,8.60
2019-03-01T07:35:50.018Z,12.17
2019-03-01T07:38:18.719Z,8.70
2019-03-01T07:40:47.098Z,7.33
2019-03-01T07:43:15.508Z,9.67
2019-03-01T07:45:44.249Z,8.47
2019-03-01T07:48:12.742Z,7.73
2019-03-01T07:50:41.251Z,7.20
2019-03-01T07:53:11.155Z,4.93
2019-03-01T07:55:39.818Z,9.90
2019-03-01T07:58:08.528Z,6.80
2019-03-01T08:00:37.022Z,9.03
2019-03-01T08:03:05.845Z,5.00
2019-03-01T08:05:35.540Z,6.33
2019-03-01T08:08:05.170Z,6.50
2019-03-01T08:10:33.887Z,5.97
2019-03-01T08:13:02.374Z,7.03
2019-03-01T08:15:30.851Z,6.80
2019-03-01T08:18:00.532Z,6.00
2019-03-01T08:20:30.384Z,10.20
2019-03-01T08:23:00.709Z,7.63
2019-03-01T08:25:30.542Z,4.93
2019-03-01T08:27:58.987Z,3.73
2019-03-01T08:30:27.768Z,5.20
2019-03-01T08:32:56.176Z,4.07
2019-03-01T08:35:25.339Z,5.03
2019-03-01T08:37:55.433Z,9.33
2019-03-01T08:40:24.132Z,5.07
2019-03-01T08:42:52.626Z,4.63
2019-03-01T08:45:21.297Z,3.93
2019-03-01T08:47:50.898Z,5.03
2019-03-01T08:50:19.465Z,4.90
2019-03-01T08:52:48.214Z,1.60
2019-03-01T08:55:22.317Z,1.70
2019-03-01T08:57:51.398Z,3.07
2019-03-01T09:00:26.616Z,3.70
2019-03-01T09:02:55.692Z,3.13
2019-03-01T09:05:24.601Z,2.53
2019-03-01T09:07:53.301Z,3.63
2019-03-01T09:10:21.785Z,4.63
2019-03-01T09:12:50.202Z,2.00
2019-03-01T09:15:18.777Z,2.10
2019-03-01T09:17:47.509Z,3.20
2019-03-01T09:20:16.644Z,2.33
2019-03-01T09:22:45.402Z,2.17
2019-03-01T09:25:14.946Z,2.47
2019-03-01T09:27:43.677Z,2.70
2019-03-01T09:30:15.147Z,3.70
2019-03-01T09:32:43.871Z,3.20
2019-03-01T09:35:16.682Z,2.53
2019-03-01T09:37:45.140Z,3.67
2019-03-01T09:40:13.997Z,2.00
2019-03-01T09:42:42.413Z,2.10
2019-03-01T09:45:13.679Z,2.60
2019-03-01T09:47:41.330Z,2.53
2019-03-01T09:50:12.253Z,3.63
2019-03-01T09:52:40.939Z,2.50
2019-03-01T09:55:10.997Z,2.70
2019-03-01T09:57:39.431Z,3.97
2019-03-01T10:00:25.758Z,2.23
2019-03-01T10:02:54.264Z,3.23
2019-03-01T10:05:22.705Z,2.50
2019-03-01T10:07:51.237Z,2.93
2019-03-01T10:10:25.025Z,2.57
2019-03-01T10:12:53.668Z,2.60
2019-03-01T10:15:22.231Z,2.57
2019-03-01T10:17:50.868Z,4.20
2019-03-01T10:20:19.294Z,2.50
2019-03-01T10:22:47.746Z,3.00
2019-03-01T10:25:20.385Z,4.70
2019-03-01T10:27:48.812Z,3.87
2019-03-01T10:30:23.510Z,4.80
2019-03-01T10:32:51.922Z,5.63
2019-03-01T10:35:20.719Z,5.70
2019-03-01T10:37:49.493Z,8.87
2019-03-01T10:40:22.945Z,7.13
2019-03-01T10:42:51.841Z,7.07
2019-03-01T10:45:23.351Z,7.20
2019-03-01T10:47:51.770Z,10.57
2019-03-01T10:50:20.283Z,14.40
2019-03-01T10:52:49.035Z,11.73
2019-03-01T10:55:21.028Z,13.67
2019-03-01T10:57:49.937Z,15.73
2019-03-01T11:00:23.096Z,15.50
2019-03-01T11:02:52.276Z,20.87
2019-03-01T11:05:21.559Z,20.53
2019-03-01T11:07:51.257Z,23.17
2019-03-01T11:10:28.094Z,19.33
2019-03-01T11:12:56.690Z,19.33
2019-03-01T11:15:25.193Z,17.13
2019-03-01T11:17:53.636Z,22.00
2019-03-01T11:20:22.600Z,24.87
2019-03-01T11:22:51.095Z,23.93
2019-03-01T11:25:23.909Z,22.70
2019-03-01T11:27:52.644Z,25.47
2019-03-01T11:30:37.223Z,20.67
2019-03-01T11:33:05.936Z,22.37
2019-03-01T11:35:34.504Z,22.33
2019-03-01T11:38:03.234Z,24.27
2019-03-01T11:40:38.968Z,23.93
2019-03-01T11:43:07.806Z,18.80
2019-03-01T11:45:36.583Z,18.20
2019-03-01T11:48:05.944Z,22.90
2019-03-01T11:50:34.438Z,17.30
2019-03-01T11:53:02.989Z,16.67
2019-03-01T11:55:31.673Z,15.37
2019-03-01T11:58:00.325Z,14.40
2019-03-01T12:00:29.533Z,16.27
2019-03-01T12:02:58.249Z,21.80
2019-03-01T12:05:26.690Z,17.63
2019-03-01T12:07:55.126Z,21.63
2019-03-01T12:10:29.155Z,21.67
2019-03-01T12:12:57.584Z,23.73
2019-03-01T12:15:26.156Z,25.53
2019-03-01T12:17:54.603Z,27.60
2019-03-01T12:20:25.319Z,29.07
2019-03-01T12:22:54.004Z,30.10
2019-03-01T12:25:23.647Z,29.63
2019-03-01T12:27:52.299Z,34.93
2019-03-01T12:30:23.467Z,30.60
2019-03-01T12:32:52.019Z,31.80
2019-03-01T12:35:20.437Z,34.33
2019-03-01T12:37:49.158Z,37.63
2019-03-01T12:40:28.572Z,39.77
2019-03-01T12:42:56.996Z,40.50
2019-03-01T12:45:25.415Z,37.30
2019-03-01T12:47:54.107Z,35.60
2019-03-01T12:50:22.775Z,38.80
2019-03-01T12:52:51.273Z,47.80
2019-03-01T12:55:24.000Z,42.93
2019-03-01T12:57:52.417Z,43.57
2019-03-01T13:00:26.534Z,51.20
2019-03-01T13:02:55.424Z,52.33
2019-03-01T13:05:25.515Z,49.70
2019-03-01T13:07:54.626Z,52.43
2019-03-01T13:10:26.108Z,50.50
2019-03-01T13:12:54.775Z,58.30
2019-03-01T13:15:23.674Z,55.07
2019-03-01T13:17:52.111Z,61.13
2019-03-01T13:20:20.696Z,58.73
2019-03-01T13:22:49.311Z,60.50
2019-03-01T13:25:18.325Z,65.13
2019-03-01T13:27:48.869Z,59.27
2019-03-01T13:30:23.896Z,65.67
2019-03-01T13:32:52.379Z,55.33
2019-03-01T13:35:22.273Z,73.37
2019-03-01T13:37:55.197Z,70.13
2019-03-01T13:40:24.545Z,66.83
2019-03-01T13:42:53.564Z,61.20
2019-03-01T13:45:26.065Z,75.67
2019-03-01T13:47:54.850Z,68.40
2019-03-01T13:50:23.782Z,70.20
2019-03-01T13:52:52.625Z,66.23
2019-03-01T13:55:23.796Z,70.17
2019-03-01T13:57:51.711Z,65.80
2019-03-01T14:00:22.197Z,63.60
2019-03-01T14:02:51.419Z,68.83
2019-03-01T14:05:20.040Z,67.80
2019-03-01T14:07:55.523Z,68.00
2019-03-01T14:10:22.070Z,64.27
2019-03-01T14:12:50.852Z,56.93
2019-03-01T14:15:19.738Z,56.40
2019-03-01T14:17:48.547Z,65.17
2019-03-01T14:20:22.082Z,63.67
2019-03-01T14:22:50.727Z,65.97
2019-03-01T14:25:19.416Z,56.63
2019-03-01T14:27:47.986Z,53.63
2019-03-01T14:30:19.065Z,52.60
2019-03-01T14:32:47.496Z,63.17
2019-03-01T14:35:16.126Z,49.60
2019-03-01T14:37:44.946Z,48.00
2019-03-01T14:40:19.104Z,52.43
2019-03-01T14:42:47.570Z,49.90
2019-03-01T14:45:21.618Z,57.80
2019-03-01T14:47:50.189Z,45.60
2019-03-01T14:50:23.357Z,68.00
2019-03-01T14:52:56.717Z,60.40
2019-03-01T14:55:32.500Z,54.00
2019-03-01T14:58:04.852Z,49.10
2019-03-01T15:00:36.843Z,55.47
2019-03-01T15:03:20.731Z,56.17
2019-03-01T15:05:49.742Z,49.93
2019-03-01T15:08:18.323Z,51.57
2019-03-01T15:10:48.246Z,53.30
2019-03-01T15:13:17.148Z,54.93
2019-03-01T15:15:45.961Z,48.97
2019-03-01T15:18:14.739Z,55.80
2019-03-01T15:20:43.203Z,50.23
2019-03-01T15:23:11.780Z,52.33
2019-03-01T15:25:40.877Z,53.23
2019-03-01T15:28:10.017Z,51.00
2019-03-01T15:30:38.672Z,49.93
2019-03-01T15:33:08.537Z,49.27
2019-03-01T15:35:39.740Z,52.57
2019-03-01T15:38:08.312Z,58.07
2019-03-01T15:40:37.216Z,52.37
2019-03-01T15:43:05.979Z,54.93
2019-03-01T15:45:36.750Z,50.77
2019-03-01T15:48:06.584Z,57.90
2019-03-01T15:50:35.076Z,52.87
2019-03-01T15:53:03.649Z,55.10
2019-03-01T15:55:32.564Z,52.87
2019-03-01T15:58:01.200Z,60.67
2019-03-01T16:00:30.550Z,51.40
2019-03-01T16:02:59.516Z,57.67
2019-03-01T16:05:28.428Z,49.87
2019-03-01T16:07:57.706Z,58.33
2019-03-01T16:10:26.332Z,56.07
2019-03-01T16:12:55.123Z,56.83
2019-03-01T16:15:24.054Z,49.00
2019-03-01T16:17:52.914Z,52.93
2019-03-01T16:20:25.059Z,52.50
2019-03-01T16:22:54.039Z,48.27
2019-03-01T16:25:22.274Z,62.30
2019-03-01T16:27:53.883Z,51.13
2019-03-01T16:30:21.311Z,49.37
2019-03-01T16:32:50.783Z,47.10
2019-03-01T16:35:22.297Z,60.00
2019-03-01T16:37:57.832Z,52.20
2019-03-01T16:40:25.460Z,52.00
2019-03-01T16:42:54.680Z,60.20
2019-03-01T16:45:24.894Z,48.47
2019-03-01T16:47:53.844Z,50.47
2019-03-01T16:50:22.560Z,51.80
2019-03-01T16:52:51.143Z,53.03
2019-03-01T16:55:30.140Z,49.73
2019-03-01T16:58:06.760Z,41.43
2019-03-01T17:00:31.779Z,47.17
2019-03-01T17:03:16.860Z,48.90
2019-03-01T17:05:41.271Z,42.87
2019-03-01T17:08:09.688Z,48.43
2019-03-01T17:10:39.169Z,41.07
2019-03-01T17:13:07.877Z,44.43
2019-03-01T17:15:36.498Z,47.87
2019-03-01T17:18:05.107Z,42.50
2019-03-01T17:20:37.492Z,39.43
2019-03-01T17:23:03.917Z,42.20
2019-03-01T17:25:32.420Z,42.60
2019-03-01T17:28:01.096Z,49.87
2019-03-01T17:30:29.645Z,46.07
2019-03-01T17:32:58.089Z,39.47
2019-03-01T17:35:26.768Z,47.63
2019-03-01T17:37:55.529Z,44.97
2019-03-01T17:40:24.307Z,49.40
2019-03-01T17:42:53.177Z,46.07
2019-03-01T17:45:24.051Z,33.57
2019-03-01T17:47:52.700Z,36.17
2019-03-01T17:50:21.214Z,36.60
2019-03-01T17:52:49.646Z,37.10
2019-03-01T17:55:19.559Z,35.43
2019-03-01T17:57:50.064Z,36.60
2019-03-01T18:00:33.939Z,37.00
2019-03-01T18:03:02.712Z,44.27
2019-03-01T18:05:31.102Z,34.27
2019-03-01T18:08:03.161Z,42.10
2019-03-01T18:10:32.104Z,35.97
2019-03-01T18:13:00.484Z,40.13
2019-03-01T18:15:29.272Z,43.27
2019-03-01T18:17:57.740Z,41.40
2019-03-01T18:20:26.539Z,42.47
2019-03-01T18:22:55.359Z,36.33
2019-03-01T18:25:26.209Z,35.23
2019-03-01T18:27:55.278Z,34.10
2019-03-01T18:30:30.047Z,33.73
2019-03-01T18:32:58.730Z,32.77
2019-03-01T18:35:27.686Z,26.90
2019-03-01T18:37:57.741Z,31.10
2019-03-01T18:40:26.214Z,28.60
2019-03-01T18:42:54.731Z,25.73
2019-03-01T18:45:27.752Z,22.43
2019-03-01T18:47:56.460Z,23.10
2019-03-01T18:50:35.882Z,26.83
2019-03-01T18:53:04.753Z,23.80
2019-03-01T18:55:33.648Z,20.10
2019-03-01T18:58:02.506Z,19.50
2019-03-01T19:00:36.956Z,19.30
2019-03-01T19:03:06.580Z,14.60
2019-03-01T19:05:36.630Z,15.50
2019-03-01T19:08:06.086Z,20.77
2019-03-01T19:10:35.315Z,15.60
2019-03-01T19:13:04.148Z,13.33
2019-03-01T19:15:33.393Z,20.63
2019-03-01T19:18:02.132Z,13.90
2019-03-01T19:20:34.062Z,16.87
2019-03-01T19:23:02.503Z,12.40
2019-03-01T19:25:31.234Z,15.87
2019-03-01T19:27:59.886Z,13.20
2019-03-01T19:30:28.821Z,14.43
2019-03-01T19:32:58.827Z,13.40
2019-03-01T19:35:29.557Z,14.77
2019-03-01T19:37:57.918Z,19.73
2019-03-01T19:40:26.796Z,16.20
2019-03-01T19:42:57.232Z,15.47
2019-03-01T19:45:25.528Z,15.30
2019-03-01T19:47:54.216Z,15.00
2019-03-01T19:50:25.050Z,13.70
2019-03-01T19:52:54.305Z,13.60
2019-03-01T19:55:22.998Z,16.50
2019-03-01T19:57:51.391Z,15.43
2019-03-01T20:00:30.097Z,15.67
2019-03-01T20:02:58.506Z,15.47
2019-03-01T20:05:38.657Z,17.80
2019-03-01T20:08:07.292Z,18.77
2019-03-01T20:10:36.968Z,22.77
2019-03-01T20:13:05.599Z,22.30
2019-03-01T20:15:34.300Z,27.27
2019-03-01T20:18:02.987Z,23.00
2019-03-01T20:20:33.329Z,28.33
2019-03-01T20:23:02.216Z,22.50
2019-03-01T20:25:30.620Z,29.10
2019-03-01T20:28:00.215Z,22.63
2019-03-01T20:30:30.709Z,25.53
2019-03-01T20:32:59.681Z,26.37
2019-03-01T20:35:28.206Z,26.43
2019-03-01T20:38:00.058Z,24.43
2019-03-01T20:40:28.071Z,21.90
2019-03-01T20:43:01.264Z,23.07
2019-03-01T20:45:31.608Z,25.20
2019-03-01T20:48:00.835Z,26.23
2019-03-01T20:50:30.438Z,24.00
2019-03-01T20:52:59.141Z,26.70
2019-03-01T20:55:27.745Z,24.67
2019-03-01T20:57:56.392Z,29.90
2019-03-01T21:00:27.160Z,24.70
2019-03-01T21:02:55.968Z,27.40
2019-03-01T21:05:25.145Z,29.07
2019-03-01T21:07:54.905Z,27.63
2019-03-01T21:10:27.313Z,28.07
2019-03-01T21:12:55.982Z,27.43
2019-03-01T21:15:24.478Z,27.37
2019-03-01T21:17:57.111Z,26.13
2019-03-01T21:20:23.537Z,30.30
2019-03-01T21:22:51.968Z,30.57
2019-03-01T21:25:22.817Z,31.63
2019-03-01T21:27:51.262Z,27.47
2019-03-01T21:30:30.472Z,28.30
2019-03-01T21:32:59.156Z,27.27
2019-03-01T21:35:27.932Z,27.70
2019-03-01T21:37:56.465Z,27.33
2019-03-01T21:40:25.141Z,24.53
2019-03-01T21:42:56.645Z,25.67
2019-03-01T21:45:26.423Z,27.80
2019-03-01T21:47:55.364Z,29.40
2019-03-01T21:50:24.097Z,30.50
2019-03-01T21:52:52.547Z,27.03
2019-03-01T21:55:24.829Z,28.00
2019-03-01T21:57:53.537Z,30.30
2019-03-01T22:00:29.965Z,28.50
2019-03-01T22:02:56.413Z,28.53
2019-03-01T22:05:25.139Z,28.50
2019-03-01T22:07:53.594Z,29.83
2019-03-01T22:10:22.583Z,30.53
2019-03-01T22:12:51.162Z,26.87
2019-03-01T22:15:25.635Z,30.27
2019-03-01T22:17:55.101Z,29.10
2019-03-01T22:20:24.444Z,27.40
2019-03-01T22:22:53.090Z,27.00
2019-03-01T22:25:21.811Z,33.13
2019-03-01T22:27:50.274Z,26.70
2019-03-01T22:30:27.881Z,27.30
2019-03-01T22:32:56.640Z,31.53
2019-03-01T22:35:25.294Z,25.53
2019-03-01T22:37:54.275Z,29.10
2019-03-01T22:40:23.880Z,29.90
2019-03-01T22:42:52.867Z,27.60
2019-03-01T22:45:21.639Z,27.27
2019-03-01T22:47:50.299Z,27.07
2019-03-01T22:50:20.020Z,29.80
2019-03-01T22:52:49.136Z,27.03
2019-03-01T22:55:18.619Z,29.77
2019-03-01T22:57:48.077Z,28.40
2019-03-01T23:00:30.221Z,28.10
2019-03-01T23:02:58.698Z,29.10
2019-03-01T23:05:27.380Z,31.43
2019-03-01T23:07:56.804Z,27.80
2019-03-01T23:10:26.317Z,28.40
2019-03-01T23:12:55.806Z,25.30
2019-03-01T23:15:24.509Z,23.70
2019-03-01T23:17:52.914Z,28.60
2019-03-01T23:20:26.323Z,25.70
2019-03-01T23:22:51.777Z,28.03
2019-03-01T23:25:20.166Z,25.67
2019-03-01T23:27:49.192Z,24.87
2019-03-01T23:30:18.059Z,24.17
2019-03-01T23:32:48.732Z,27.27
2019-03-01T23:35:18.192Z,25.70
2019-03-01T23:37:47.151Z,26.07
2019-03-01T23:40:16.101Z,26.80
2019-03-01T23:42:44.747Z,25.33
2019-03-01T23:45:17.215Z,27.93
2019-03-01T23:47:43.780Z,29.67
2019-03-01T23:50:12.795Z,29.27
2019-03-01T23:52:41.258Z,25.93
2019-03-01T23:55:10.205Z,29.57
2019-03-01T23:57:41.068Z,27.17
